createdAt,value
2019-03-05T00:01:51.443Z,3.23
2019-03-05T00:04:18.235Z,3.13
2019-03-05T00:06:48.430Z,3.53
2019-03-05T00:09:22.554Z,2.63
2019-03-05T00:11:52.839Z,3.10
2019-03-05T00:14:23.999Z,3.93
2019-03-05T00:16:53.776Z,3.63
2019-03-05T00:19:23.481Z,3.67
2019-03-05T00:21:53.260Z,3.10
2019-03-05T00:24:57.558Z,2.70
2019-03-05T00:27:28.047Z,2.83
2019-03-05T00:30:21.789Z,6.27
2019-03-05T00:32:59.239Z,4.17
2019-03-05T00:35:54.379Z,2.40
2019-03-05T00:38:34.815Z,2.50
2019-03-05T00:41:36.168Z,2.90
2019-03-05T00:44:42.244Z,3.93
2019-03-05T00:47:42.578Z,6.10
2019-03-05T00:50:28.746Z,3.20
2019-03-05T00:53:18.735Z,3.47
2019-03-05T00:56:12.327Z,3.60
2019-03-05T00:59:09.794Z,4.53
2019-03-05T01:02:15.750Z,3.13
2019-03-05T01:05:21.454Z,3.60
2019-03-05T01:07:51.322Z,3.40
2019-03-05T01:10:22.455Z,4.10
2019-03-05T01:12:53.376Z,1.97
2019-03-05T01:15:23.334Z,2.30
2019-03-05T01:17:53.269Z,2.60
2019-03-05T01:20:23.378Z,2.10
2019-03-05T01:22:53.218Z,2.03
2019-03-05T01:25:26.798Z,2.17
2019-03-05T01:27:56.664Z,3.63
2019-03-05T01:30:49.607Z,3.53
2019-03-05T01:33:19.428Z,3.07
2019-03-05T01:35:53.352Z,3.90
2019-03-05T01:38:24.177Z,2.07
2019-03-05T01:41:01.554Z,3.63
2019-03-05T01:43:31.678Z,3.60
2019-03-05T01:46:01.467Z,3.07
2019-03-05T01:48:31.181Z,3.30
2019-03-05T01:51:01.021Z,3.23
2019-03-05T01:53:31.701Z,2.57
2019-03-05T01:56:01.418Z,2.50
2019-03-05T01:58:31.378Z,2.77
2019-03-05T02:01:01.137Z,2.30
2019-03-05T02:03:31.005Z,2.00
2019-03-05T02:06:00.878Z,3.93
2019-03-05T02:08:30.673Z,2.40
2019-03-05T02:11:05.179Z,2.50
2019-03-05T02:13:36.251Z,2.10
2019-03-05T02:16:06.020Z,2.70
2019-03-05T02:18:36.632Z,1.97
2019-03-05T02:21:06.488Z,1.97
2019-03-05T02:23:59.831Z,3.07
2019-03-05T02:26:52.684Z,2.73
2019-03-05T02:29:39.302Z,2.33
2019-03-05T02:33:05.413Z,2.17
2019-03-05T02:35:59.930Z,2.40
2019-03-05T02:39:10.691Z,2.27
2019-03-05T02:42:30.879Z,2.00
2019-03-05T02:45:24.940Z,2.83
2019-03-05T02:48:32.570Z,3.37
2019-03-05T02:51:20.810Z,1.73
2019-03-05T02:54:53.311Z,2.97
2019-03-05T02:57:22.768Z,2.33
2019-03-05T02:59:52.526Z,1.93
2019-03-05T03:02:42.159Z,2.03
2019-03-05T03:05:36.525Z,2.63
2019-03-05T03:08:06.231Z,2.10
2019-03-05T03:10:36.012Z,1.60
2019-03-05T03:13:06.882Z,2.63
2019-03-05T03:15:36.664Z,2.30
2019-03-05T03:18:06.525Z,3.20
2019-03-05T03:20:36.466Z,2.07
2019-03-05T03:23:06.365Z,2.20
2019-03-05T03:25:36.332Z,1.83
2019-03-05T03:28:06.088Z,1.93
2019-03-05T03:30:35.931Z,1.83
2019-03-05T03:33:05.781Z,2.20
2019-03-05T03:35:35.639Z,1.70
2019-03-05T03:38:05.443Z,2.30
2019-03-05T03:40:35.189Z,2.93
2019-03-05T03:43:05.066Z,2.10
2019-03-05T03:45:34.886Z,1.80
2019-03-05T03:48:05.903Z,1.97
2019-03-05T03:50:35.691Z,2.03
2019-03-05T03:53:05.360Z,1.93
2019-03-05T03:55:35.234Z,2.53
2019-03-05T03:58:07.373Z,1.90
2019-03-05T04:00:37.088Z,1.60
2019-03-05T04:03:06.867Z,1.93
2019-03-05T04:05:37.660Z,3.10
2019-03-05T04:08:10.309Z,3.73
2019-03-05T04:10:39.150Z,1.77
2019-03-05T04:13:09.007Z,1.73
2019-03-05T04:15:39.408Z,1.97
2019-03-05T04:18:09.187Z,1.50
2019-03-05T04:20:49.118Z,1.50
2019-03-05T04:23:18.985Z,1.73
2019-03-05T04:25:49.757Z,1.87
2019-03-05T04:28:19.446Z,1.43
2019-03-05T04:30:49.206Z,1.90
2019-03-05T04:33:18.975Z,2.27
2019-03-05T04:35:48.785Z,1.47
2019-03-05T04:38:18.470Z,1.67
2019-03-05T04:40:48.158Z,1.50
2019-03-05T04:43:17.839Z,1.70
2019-03-05T04:46:01.151Z,1.67
2019-03-05T04:48:30.883Z,1.43
2019-03-05T04:51:08.805Z,1.40
2019-03-05T04:53:38.511Z,1.40
2019-03-05T04:56:08.228Z,1.30
2019-03-05T04:58:38.024Z,3.17
2019-03-05T05:01:07.829Z,1.70
2019-03-05T05:03:37.615Z,1.40
2019-03-05T05:06:07.457Z,1.30
2019-03-05T05:08:37.226Z,2.17
2019-03-05T05:11:09.799Z,1.60
2019-03-05T05:13:58.775Z,1.67
2019-03-05T05:16:28.463Z,1.20
2019-03-05T05:18:58.219Z,1.63
2019-03-05T05:21:28.082Z,2.00
2019-03-05T05:23:57.789Z,1.87
2019-03-05T05:26:27.674Z,4.73
2019-03-05T05:28:57.486Z,1.43
2019-03-05T05:31:27.320Z,1.40
2019-03-05T05:34:01.768Z,1.77
2019-03-05T05:36:31.655Z,2.10
2019-03-05T05:39:01.382Z,1.93
2019-03-05T05:41:32.826Z,1.63
2019-03-05T05:44:02.577Z,1.87
2019-03-05T05:46:32.380Z,1.73
2019-03-05T05:49:02.337Z,2.37
2019-03-05T05:51:32.238Z,2.93
2019-03-05T05:54:02.039Z,2.07
2019-03-05T05:56:36.462Z,1.87
2019-03-05T05:59:09.202Z,2.70
2019-03-05T06:01:39.995Z,2.60
2019-03-05T06:04:09.870Z,2.20
2019-03-05T06:06:39.614Z,3.17
2019-03-05T06:09:09.396Z,1.37
2019-03-05T06:11:39.230Z,2.07
2019-03-05T06:14:08.977Z,2.73
2019-03-05T06:16:39.827Z,2.40
2019-03-05T06:19:10.474Z,1.47
2019-03-05T06:21:40.178Z,1.70
2019-03-05T06:24:09.934Z,2.13
2019-03-05T06:26:39.708Z,1.60
2019-03-05T06:29:09.377Z,1.57
2019-03-05T06:31:39.163Z,2.57
2019-03-05T06:34:09.006Z,1.73
2019-03-05T06:36:52.146Z,1.80
2019-03-05T06:39:21.862Z,1.50
2019-03-05T06:41:51.570Z,2.33
2019-03-05T06:44:21.339Z,2.13
2019-03-05T06:46:51.135Z,2.27
2019-03-05T06:49:21.006Z,2.90
2019-03-05T06:51:50.984Z,1.43
2019-03-05T06:54:20.683Z,1.63
2019-03-05T06:56:50.390Z,2.00
2019-03-05T06:59:20.316Z,1.93
2019-03-05T07:01:50.086Z,1.93
2019-03-05T07:04:19.894Z,1.97
2019-03-05T07:06:54.570Z,2.07
2019-03-05T07:09:31.429Z,3.07
2019-03-05T07:12:08.275Z,1.67
2019-03-05T07:15:15.205Z,2.63
2019-03-05T07:17:48.960Z,3.53
2019-03-05T07:21:27.481Z,2.03
2019-03-05T07:24:47.281Z,1.73
2019-03-05T07:27:25.810Z,2.53
2019-03-05T07:29:57.584Z,2.90
2019-03-05T07:32:27.430Z,2.63
2019-03-05T07:34:57.254Z,2.07
2019-03-05T07:37:27.099Z,1.83
2019-03-05T07:39:56.899Z,2.43
2019-03-05T07:42:27.774Z,2.07
2019-03-05T07:44:57.497Z,5.50
2019-03-05T07:47:27.291Z,2.30
2019-03-05T07:49:57.242Z,1.73
2019-03-05T07:52:27.080Z,1.60
2019-03-05T07:54:57.041Z,1.80
2019-03-05T07:57:26.830Z,3.30
2019-03-05T07:59:56.731Z,1.90
2019-03-05T08:02:26.579Z,1.43
2019-03-05T08:04:56.370Z,2.73
2019-03-05T08:07:27.676Z,3.03
2019-03-05T08:10:00.936Z,1.77
2019-03-05T08:12:53.366Z,2.17
2019-03-05T08:16:02.073Z,1.97
2019-03-05T08:18:23.358Z,3.00
2019-03-05T08:20:53.188Z,2.60
2019-03-05T08:23:23.005Z,2.10
2019-03-05T08:25:52.738Z,2.00
2019-03-05T08:28:22.531Z,1.63
2019-03-05T08:30:52.241Z,2.37
2019-03-05T08:33:21.991Z,1.60
2019-03-05T08:35:51.780Z,2.30
2019-03-05T08:38:21.469Z,3.87
2019-03-05T08:40:51.314Z,2.17
2019-03-05T08:43:21.022Z,3.03
2019-03-05T08:45:50.819Z,2.23
2019-03-05T08:48:20.594Z,1.77
2019-03-05T08:50:50.401Z,2.60
2019-03-05T08:53:20.147Z,3.43
2019-03-05T08:55:50.015Z,1.90
2019-03-05T08:58:19.776Z,3.70
2019-03-05T09:00:49.487Z,1.30
2019-03-05T09:03:20.316Z,2.43
2019-03-05T09:05:50.154Z,1.87
2019-03-05T09:08:19.994Z,2.03
2019-03-05T09:10:50.798Z,1.93
2019-03-05T09:13:32.011Z,2.00
2019-03-05T09:15:53.704Z,2.60
2019-03-05T09:18:23.531Z,1.77
2019-03-05T09:20:53.807Z,1.60
2019-03-05T09:23:23.575Z,2.00
2019-03-05T09:25:53.433Z,2.57
2019-03-05T09:28:23.283Z,2.27
2019-03-05T09:30:54.814Z,2.27
2019-03-05T09:33:26.735Z,3.10
2019-03-05T09:35:57.485Z,2.40
2019-03-05T09:38:27.234Z,2.73
2019-03-05T09:40:56.963Z,1.93
2019-03-05T09:43:26.834Z,2.57
2019-03-05T09:45:56.919Z,2.27
2019-03-05T09:48:26.727Z,2.07
2019-03-05T09:50:58.787Z,2.17
2019-03-05T09:53:28.558Z,2.83
2019-03-05T09:55:58.296Z,2.93
2019-03-05T09:58:28.146Z,1.83
2019-03-05T10:00:58.361Z,3.17
2019-03-05T10:03:28.220Z,1.83
2019-03-05T10:05:59.023Z,1.87
2019-03-05T10:08:32.421Z,1.50
2019-03-05T10:11:00.401Z,1.50
2019-03-05T10:13:30.254Z,2.40
2019-03-05T10:16:00.091Z,2.00
2019-03-05T10:18:29.978Z,2.20
2019-03-05T10:21:00.909Z,1.50
2019-03-05T10:23:30.790Z,2.70
2019-03-05T10:26:00.572Z,1.57
2019-03-05T10:28:30.471Z,1.70
2019-03-05T10:31:00.398Z,1.60
2019-03-05T10:33:30.346Z,1.90
2019-03-05T10:36:00.222Z,2.27
2019-03-05T10:38:30.139Z,1.90
2019-03-05T10:41:01.814Z,2.87
2019-03-05T10:43:31.888Z,1.70
2019-03-05T10:46:01.742Z,1.23
2019-03-05T10:48:31.675Z,1.63
2019-03-05T10:51:01.573Z,1.63
2019-03-05T10:53:32.298Z,1.80
2019-03-05T10:56:02.249Z,1.47
2019-03-05T10:58:34.488Z,1.80
2019-03-05T11:01:05.715Z,1.87
2019-03-05T11:03:35.466Z,2.67
2019-03-05T11:06:08.488Z,1.50
2019-03-05T11:08:38.520Z,2.30
2019-03-05T11:11:13.624Z,2.20
2019-03-05T11:13:40.011Z,1.57
2019-03-05T11:16:10.143Z,2.57
2019-03-05T11:18:40.135Z,1.87
2019-03-05T11:21:10.087Z,1.80
2019-03-05T11:23:39.927Z,2.77
2019-03-05T11:26:09.799Z,1.67
2019-03-05T11:28:39.589Z,1.50
2019-03-05T11:31:10.169Z,2.80
2019-03-05T11:33:40.039Z,1.90
2019-03-05T11:36:09.920Z,1.97
2019-03-05T11:38:39.694Z,1.53
2019-03-05T11:41:10.560Z,1.50
2019-03-05T11:43:40.376Z,1.63
2019-03-05T11:46:16.288Z,1.93
2019-03-05T11:48:46.069Z,1.80
2019-03-05T11:51:15.832Z,1.63
2019-03-05T11:53:45.697Z,1.67
2019-03-05T11:56:15.462Z,1.57
2019-03-05T11:58:45.394Z,3.23
2019-03-05T12:01:21.298Z,2.47
2019-03-05T12:03:51.090Z,2.13
2019-03-05T12:06:20.851Z,1.63
2019-03-05T12:08:50.630Z,1.50
2019-03-05T12:11:20.498Z,1.20
2019-03-05T12:13:50.259Z,1.90
2019-03-05T12:16:20.130Z,2.63
2019-03-05T12:18:49.961Z,1.37
2019-03-05T12:21:19.831Z,1.37
2019-03-05T12:23:49.566Z,1.33
2019-03-05T12:26:22.580Z,1.83
2019-03-05T12:28:52.346Z,2.40
2019-03-05T12:31:22.118Z,1.33
2019-03-05T12:33:51.842Z,1.87
2019-03-05T12:36:21.626Z,2.90
2019-03-05T12:38:51.486Z,1.87
2019-03-05T12:41:21.182Z,2.47
2019-03-05T12:43:50.875Z,1.50
2019-03-05T12:46:21.726Z,2.20
2019-03-05T12:48:51.555Z,2.80
2019-03-05T12:51:21.535Z,1.87
2019-03-05T12:53:51.305Z,1.80
2019-03-05T12:56:24.227Z,1.10
2019-03-05T12:58:52.654Z,1.40
2019-03-05T13:01:22.442Z,1.53
2019-03-05T13:03:52.158Z,3.00
2019-03-05T13:06:21.872Z,1.43
2019-03-05T13:08:51.714Z,1.73
2019-03-05T13:11:21.490Z,2.03
2019-03-05T13:14:05.384Z,1.97
2019-03-05T13:16:23.494Z,1.83
2019-03-05T13:18:53.211Z,2.97
2019-03-05T13:21:23.027Z,1.37
2019-03-05T13:23:52.796Z,2.23
2019-03-05T13:26:22.718Z,3.10
2019-03-05T13:28:52.541Z,2.93
2019-03-05T13:31:22.387Z,1.57
2019-03-05T13:33:52.080Z,3.00
2019-03-05T13:36:21.795Z,1.60
2019-03-05T13:38:51.494Z,1.70
2019-03-05T13:41:21.183Z,1.70
2019-03-05T13:43:52.043Z,2.37
2019-03-05T13:46:25.835Z,2.57
2019-03-05T13:49:41.632Z,2.00
2019-03-05T13:52:36.108Z,1.63
2019-03-05T13:55:53.263Z,2.17
2019-03-05T13:58:47.215Z,1.40
2019-03-05T14:01:18.338Z,2.03
2019-03-05T14:03:56.547Z,1.83
2019-03-05T14:06:38.483Z,1.73
2019-03-05T14:09:20.217Z,2.40
2019-03-05T14:11:53.605Z,2.13
2019-03-05T14:14:41.833Z,1.60
2019-03-05T14:17:20.415Z,1.80
2019-03-05T14:19:50.336Z,1.67
2019-03-05T14:22:20.240Z,2.67
2019-03-05T14:24:58.266Z,1.83
2019-03-05T14:27:21.657Z,1.37
2019-03-05T14:29:51.485Z,1.37
2019-03-05T14:32:21.401Z,2.17
2019-03-05T14:34:59.043Z,3.07
2019-03-05T14:37:30.534Z,1.90
2019-03-05T14:40:22.248Z,2.03
2019-03-05T14:42:33.966Z,2.00
2019-03-05T14:45:03.761Z,2.80
2019-03-05T14:47:33.796Z,2.00
2019-03-05T14:50:04.898Z,1.93
2019-03-05T14:52:34.631Z,1.90
2019-03-05T14:55:04.926Z,2.00
2019-03-05T14:57:34.630Z,2.10
2019-03-05T15:00:04.901Z,2.10
2019-03-05T15:02:36.425Z,2.03
2019-03-05T15:05:06.560Z,3.40
2019-03-05T15:07:37.419Z,2.57
2019-03-05T15:10:09.163Z,1.80
2019-03-05T15:12:39.031Z,1.80
2019-03-05T15:15:18.191Z,1.70
2019-03-05T15:17:51.211Z,2.40
2019-03-05T15:20:21.172Z,1.90
2019-03-05T15:22:51.057Z,1.53
2019-03-05T15:25:21.013Z,1.60
2019-03-05T15:27:51.084Z,2.23
2019-03-05T15:30:22.031Z,2.10
2019-03-05T15:32:54.916Z,2.50
2019-03-05T15:35:26.069Z,1.70
2019-03-05T15:37:55.805Z,1.77
2019-03-05T15:40:25.777Z,2.27
2019-03-05T15:42:55.608Z,1.50
2019-03-05T15:45:25.425Z,1.97
2019-03-05T15:47:55.226Z,1.73
2019-03-05T15:50:25.257Z,1.67
2019-03-05T15:52:55.211Z,1.63
2019-03-05T15:55:25.153Z,2.27
2019-03-05T15:57:55.034Z,2.30
2019-03-05T16:00:29.018Z,2.80
2019-03-05T16:02:59.114Z,3.50
2019-03-05T16:05:29.290Z,2.10
2019-03-05T16:08:01.031Z,5.20
2019-03-05T16:10:30.807Z,1.67
2019-03-05T16:13:00.616Z,4.00
2019-03-05T16:15:30.509Z,2.17
2019-03-05T16:18:01.267Z,2.20
2019-03-05T16:20:32.171Z,2.47
2019-03-05T16:23:01.959Z,2.17
2019-03-05T16:25:31.750Z,2.53
2019-03-05T16:28:02.372Z,2.50
2019-03-05T16:30:51.442Z,2.17
2019-03-05T16:33:39.210Z,1.70
2019-03-05T16:36:32.099Z,2.13
2019-03-05T16:39:33.291Z,1.77
2019-03-05T16:42:23.052Z,2.07
2019-03-05T16:45:12.508Z,2.00
2019-03-05T16:48:00.298Z,3.00
2019-03-05T16:51:01.035Z,2.23
2019-03-05T16:53:41.367Z,1.80
2019-03-05T16:56:30.366Z,4.33
2019-03-05T16:59:29.374Z,2.33
2019-03-05T17:02:24.186Z,2.47
2019-03-05T17:05:11.546Z,2.67
2019-03-05T17:08:02.315Z,3.80
2019-03-05T17:10:56.808Z,4.83
2019-03-05T17:13:26.631Z,3.03
2019-03-05T17:15:58.853Z,8.90
2019-03-05T17:18:28.676Z,8.83
2019-03-05T17:20:58.476Z,7.70
2019-03-05T17:23:28.611Z,9.20
2019-03-05T17:25:58.448Z,7.50
2019-03-05T17:28:28.281Z,10.10
2019-03-05T17:30:58.179Z,9.17
2019-03-05T17:33:28.132Z,11.60
2019-03-05T17:35:58.902Z,13.07
2019-03-05T17:38:29.787Z,14.40
2019-03-05T17:40:59.584Z,5.03
2019-03-05T17:43:29.360Z,7.43
2019-03-05T17:45:59.198Z,7.03
2019-03-05T17:48:28.977Z,4.13
2019-03-05T17:50:58.840Z,3.10
2019-03-05T17:53:28.710Z,3.23
2019-03-05T17:55:58.701Z,3.00
2019-03-05T17:58:28.497Z,2.43
2019-03-05T18:00:58.295Z,3.90
2019-03-05T18:03:28.208Z,2.63
2019-03-05T18:05:58.012Z,5.73
2019-03-05T18:08:27.802Z,5.03
2019-03-05T18:10:57.929Z,3.93
2019-03-05T18:13:27.801Z,3.03
2019-03-05T18:15:58.063Z,4.10
2019-03-05T18:18:27.969Z,5.87
2019-03-05T18:20:57.890Z,4.43
2019-03-05T18:23:27.736Z,3.60
2019-03-05T18:25:57.590Z,4.23
2019-03-05T18:28:27.804Z,5.50
2019-03-05T18:30:57.859Z,3.17
2019-03-05T18:33:27.711Z,3.23
2019-03-05T18:35:57.682Z,3.50
2019-03-05T18:38:27.515Z,4.90
2019-03-05T18:40:58.812Z,4.43
2019-03-05T18:43:28.738Z,3.47
2019-03-05T18:45:58.621Z,2.90
2019-03-05T18:48:28.456Z,2.57
2019-03-05T18:50:58.659Z,4.00
2019-03-05T18:53:28.579Z,3.97
2019-03-05T18:55:58.468Z,4.93
2019-03-05T18:58:28.336Z,3.73
2019-03-05T19:00:58.116Z,3.60
2019-03-05T19:03:28.065Z,4.40
2019-03-05T19:05:57.941Z,4.27
2019-03-05T19:08:27.946Z,3.07
2019-03-05T19:10:57.938Z,3.67
2019-03-05T19:13:28.984Z,3.80
2019-03-05T19:15:59.394Z,2.13
2019-03-05T19:18:29.258Z,2.90
2019-03-05T19:20:59.465Z,3.13
2019-03-05T19:23:29.238Z,3.40
2019-03-05T19:25:59.219Z,2.80
2019-03-05T19:28:29.048Z,2.83
2019-03-05T19:30:58.809Z,3.10
2019-03-05T19:33:28.601Z,2.93
2019-03-05T19:35:58.353Z,4.37
2019-03-05T19:38:28.095Z,2.90
2019-03-05T19:40:58.043Z,3.90
2019-03-05T19:43:27.935Z,4.53
2019-03-05T19:45:57.853Z,3.23
2019-03-05T19:48:28.049Z,2.90
2019-03-05T19:50:57.926Z,2.70
2019-03-05T19:53:27.903Z,3.43
2019-03-05T19:55:57.635Z,2.30
2019-03-05T19:58:27.500Z,2.87
2019-03-05T20:01:11.057Z,2.53
2019-03-05T20:03:41.028Z,2.50
2019-03-05T20:06:12.900Z,3.13
2019-03-05T20:08:42.714Z,2.60
2019-03-05T20:11:12.860Z,5.33
2019-03-05T20:13:42.812Z,2.53
2019-03-05T20:16:14.907Z,2.43
2019-03-05T20:18:44.873Z,2.73
2019-03-05T20:21:14.656Z,3.17
2019-03-05T20:23:44.448Z,3.37
2019-03-05T20:26:14.265Z,2.70
2019-03-05T20:28:44.147Z,2.80
2019-03-05T20:31:15.303Z,3.93
2019-03-05T20:33:45.122Z,3.00
2019-03-05T20:36:15.149Z,3.33
2019-03-05T20:38:45.050Z,2.50
2019-03-05T20:41:15.000Z,3.10
2019-03-05T20:43:46.308Z,4.60
2019-03-05T20:46:22.789Z,4.97
2019-03-05T20:48:52.784Z,3.30
2019-03-05T20:51:23.104Z,3.77
2019-03-05T20:53:52.947Z,3.50
2019-03-05T20:56:22.908Z,4.53
2019-03-05T20:58:52.930Z,4.63
2019-03-05T21:01:22.864Z,4.77
2019-03-05T21:03:53.637Z,5.23
2019-03-05T21:06:24.091Z,2.90
2019-03-05T21:08:54.189Z,3.00
2019-03-05T21:11:24.104Z,3.20
2019-03-05T21:13:54.542Z,2.63
2019-03-05T21:16:24.473Z,2.63
2019-03-05T21:18:54.283Z,2.53
2019-03-05T21:21:26.726Z,4.27
2019-03-05T21:23:56.502Z,3.10
2019-03-05T21:26:26.356Z,3.17
2019-03-05T21:28:56.376Z,2.87
2019-03-05T21:31:26.113Z,2.43
2019-03-05T21:33:55.974Z,3.30
2019-03-05T21:36:25.801Z,2.67
2019-03-05T21:38:55.654Z,3.37
2019-03-05T21:41:25.404Z,3.07
2019-03-05T21:43:55.137Z,2.97
2019-03-05T21:46:24.914Z,4.40
2019-03-05T21:48:54.651Z,3.90
2019-03-05T21:51:24.898Z,3.63
2019-03-05T21:53:54.594Z,3.77
2019-03-05T21:56:24.383Z,2.93
2019-03-05T21:58:54.187Z,3.87
2019-03-05T22:01:23.864Z,4.17
2019-03-05T22:03:53.621Z,3.03
2019-03-05T22:06:23.407Z,2.93
2019-03-05T22:08:53.120Z,2.87
2019-03-05T22:11:22.913Z,2.97
2019-03-05T22:13:52.614Z,3.90
2019-03-05T22:16:22.411Z,3.13
2019-03-05T22:18:52.162Z,3.10
2019-03-05T22:21:21.951Z,3.33
2019-03-05T22:23:52.174Z,3.20
2019-03-05T22:26:22.263Z,3.53
2019-03-05T22:28:51.958Z,3.53
2019-03-05T22:31:21.839Z,5.53
2019-03-05T22:33:51.602Z,3.90
2019-03-05T22:36:21.391Z,4.13
2019-03-05T22:38:51.180Z,3.53
2019-03-05T22:41:20.978Z,5.33
2019-03-05T22:43:50.821Z,4.00
2019-03-05T22:46:20.529Z,4.57
2019-03-05T22:48:50.230Z,4.73
2019-03-05T22:51:20.134Z,5.50
2019-03-05T22:53:49.962Z,4.67
2019-03-05T22:56:19.766Z,4.73
2019-03-05T22:58:50.530Z,4.33
2019-03-05T23:01:33.724Z,4.57
2019-03-05T23:04:03.711Z,6.10
2019-03-05T23:06:33.734Z,5.07
2019-03-05T23:09:09.675Z,5.63
2019-03-05T23:11:41.206Z,5.33
2019-03-05T23:14:11.079Z,5.07
2019-03-05T23:16:41.108Z,5.73
2019-03-05T23:19:12.499Z,7.27
2019-03-05T23:21:42.462Z,5.47
2019-03-05T23:24:12.223Z,4.10
2019-03-05T23:26:44.296Z,6.37
2019-03-05T23:29:14.159Z,5.13
2019-03-05T23:31:45.003Z,6.53
2019-03-05T23:34:18.176Z,5.57
2019-03-05T23:36:46.375Z,5.47
2019-03-05T23:39:17.083Z,5.60
2019-03-05T23:41:46.876Z,5.20
2019-03-05T23:44:16.630Z,5.47
2019-03-05T23:46:46.405Z,6.13
2019-03-05T23:49:16.286Z,5.67
2019-03-05T23:51:46.082Z,6.00
2019-03-05T23:54:15.786Z,6.47
2019-03-05T23:56:45.542Z,6.77
2019-03-05T23:59:15.299Z,6.13
